Terminal Aerodrome Forecast
Issued by NWS

Home | Current Version | Previous Version | Graphics & Text | Print | Product List | Glossary On
Versions: 1 2 3 4 5 6 7 8 9 10 11 12 13 14 15 16 17
000
FTUS43 KICT 250522
TAFCNU
TAF
KCNU 250522Z 2506/2606 18014KT P6SM SCT025 BKN060
     FM250900 20014G20KT P6SM VCTS SCT035CB BKN060
      TEMPO 2509/2513 5SM -TSRA BR BKN015CB
     FM251300 27015KT P6SM SCT020 BKN050
     FM251700 29016G22KT P6SM SCT050
     FM260100 02014KT P6SM SCT050=

USA.gov is the U.S. government's official web portal to all federal, state and local government web resources and services.